BXS2487 LEMD-LEPA
Flight info
| Callsign | BXS2487 |
|---|---|
| Flight time | N/A |
| Altitude | 14000 |
| Route | NANDO T257 LASPO M871 GODOX |
| Aircraft | DC6/M-SDGH/C |
Departure
| Time | 2026-05-04 06:20 |
|---|---|
| Airport | Adolfo Suárez Madrid–Barajas Airport (LEMD) |
Arrival
| Time | N/A |
|---|---|
| Airport | Palma de Mallorca Airport (LEPA) |
| Time | Latitude | Longitude | Altitude | Speed | Heading |
|---|---|---|---|---|---|
| 2026-05-04 06:00 | 40.49422 | -3.58746 | 1983 ft | 0 kts | 270° |
| 2026-05-04 06:13 | 40.49422 | -3.58753 | 1980 ft | 3 kts | 271° |
| 2026-05-04 06:14 | 40.49225 | -3.58106 | 1981 ft | 17 kts | 94° |
| 2026-05-04 06:14 | 40.49226 | -3.57995 | 1982 ft | 0 kts | 88° |
| 2026-05-04 06:15 | 40.49228 | -3.57914 | 1980 ft | 12 kts | 90° |
| 2026-05-04 06:16 | 40.49227 | -3.57804 | 1982 ft | 12 kts | 90° |
| 2026-05-04 06:16 | 40.49227 | -3.57786 | 1980 ft | 0 kts | 90° |
| 2026-05-04 06:17 | 40.49228 | -3.57748 | 1982 ft | 13 kts | 85° |
| 2026-05-04 06:17 | 40.49233 | -3.57698 | 1980 ft | 0 kts | 80° |
| 2026-05-04 06:17 | 40.49263 | -3.57562 | 1981 ft | 20 kts | 66° |
| 2026-05-04 06:17 | 40.49339 | -3.57459 | 1983 ft | 13 kts | 9° |
| 2026-05-04 06:18 | 40.49357 | -3.57457 | 1982 ft | 0 kts | 0° |
| 2026-05-04 06:20 | 40.55313 | -3.57437 | 2600 ft | 183 kts | 11° |
| 2026-05-04 06:20 | 40.56552 | -3.56950 | 2730 ft | 191 kts | 19° |
| 2026-05-04 06:21 | 40.62252 | -3.54788 | 3378 ft | 226 kts | 15° |
| 2026-05-04 06:21 | 40.63783 | -3.54243 | 3583 ft | 229 kts | 10° |
| 2026-05-04 06:22 | 40.65376 | -3.54065 | 3793 ft | 231 kts | 1° |
| 2026-05-04 06:22 | 40.66993 | -3.53975 | 4006 ft | 234 kts | 2° |
| 2026-05-04 06:25 | 40.73928 | -3.33470 | 6988 ft | 226 kts | 131° |
| 2026-05-04 06:25 | 40.72979 | -3.31794 | 7242 ft | 230 kts | 130° |
| 2026-05-04 06:26 | 40.72011 | -3.30101 | 7493 ft | 233 kts | 131° |
| 2026-05-04 06:26 | 40.71025 | -3.28399 | 7750 ft | 234 kts | 131° |
| 2026-05-04 06:26 | 40.69877 | -3.26932 | 7966 ft | 228 kts | 152° |
| 2026-05-04 06:26 | 40.68440 | -3.26128 | 8218 ft | 223 kts | 165° |
| 2026-05-04 06:27 | 40.62586 | -3.23112 | 9266 ft | 230 kts | 162° |
| 2026-05-04 06:28 | 40.61102 | -3.22328 | 9533 ft | 230 kts | 162° |
| 2026-05-04 06:28 | 40.59614 | -3.21544 | 9800 ft | 230 kts | 162° |
| 2026-05-04 06:28 | 40.58123 | -3.20756 | 10041 ft | 232 kts | 163° |
| 2026-05-04 06:28 | 40.56625 | -3.19967 | 10285 ft | 233 kts | 162° |
| 2026-05-04 06:29 | 40.55123 | -3.19173 | 10530 ft | 233 kts | 163° |
| 2026-05-04 06:29 | 40.53617 | -3.18378 | 10767 ft | 233 kts | 163° |
| 2026-05-04 06:29 | 40.52107 | -3.17584 | 11004 ft | 234 kts | 163° |
| 2026-05-04 06:29 | 40.50591 | -3.16785 | 11260 ft | 235 kts | 163° |
| 2026-05-04 06:30 | 40.49071 | -3.15984 | 11516 ft | 235 kts | 163° |
| 2026-05-04 06:30 | 40.47571 | -3.15196 | 11756 ft | 235 kts | 163° |
| 2026-05-04 06:30 | 40.46052 | -3.14395 | 12012 ft | 235 kts | 163° |
| 2026-05-04 06:30 | 40.44533 | -3.13599 | 12266 ft | 234 kts | 163° |
| 2026-05-04 06:31 | 40.43022 | -3.12803 | 12519 ft | 234 kts | 163° |
| 2026-05-04 06:31 | 40.41509 | -3.12010 | 12775 ft | 234 kts | 163° |
| 2026-05-04 06:31 | 40.40025 | -3.11107 | 13017 ft | 239 kts | 152° |
| 2026-05-04 06:31 | 40.38746 | -3.09695 | 13281 ft | 241 kts | 142° |
| 2026-05-04 06:32 | 40.37519 | -3.08189 | 13547 ft | 241 kts | 143° |
| 2026-05-04 06:33 | 40.28516 | -2.97947 | 13999 ft | 254 kts | 144° |
| 2026-05-04 06:34 | 40.27179 | -2.96421 | 13995 ft | 255 kts | 144° |
| 2026-05-04 06:34 | 40.25832 | -2.94898 | 13999 ft | 257 kts | 144° |
| 2026-05-04 06:34 | 40.24478 | -2.93360 | 13999 ft | 257 kts | 144° |
| 2026-05-04 06:34 | 40.23122 | -2.91820 | 13996 ft | 258 kts | 144° |
| 2026-05-04 06:35 | 40.21760 | -2.90277 | 13997 ft | 259 kts | 144° |
| 2026-05-04 06:36 | 40.12727 | -2.78743 | 13987 ft | 274 kts | 113° |
| 2026-05-04 06:37 | 40.12253 | -2.76327 | 13999 ft | 275 kts | 107° |
| 2026-05-04 06:37 | 40.11800 | -2.73898 | 13999 ft | 275 kts | 110° |
| 2026-05-04 06:37 | 40.11246 | -2.71517 | 13999 ft | 274 kts | 112° |
| 2026-05-04 06:37 | 40.10682 | -2.69130 | 14000 ft | 275 kts | 111° |
| 2026-05-04 06:38 | 40.10145 | -2.66730 | 14001 ft | 275 kts | 110° |
| 2026-05-04 06:38 | 40.09609 | -2.64330 | 14000 ft | 275 kts | 111° |
| 2026-05-04 06:40 | 40.05793 | -2.47536 | 14003 ft | 276 kts | 111° |
| 2026-05-04 06:40 | 40.05243 | -2.45128 | 13999 ft | 276 kts | 111° |
| 2026-05-04 06:40 | 40.04697 | -2.42728 | 13998 ft | 275 kts | 111° |
| 2026-05-04 06:40 | 40.04149 | -2.40333 | 14002 ft | 275 kts | 111° |
| 2026-05-04 06:41 | 40.03600 | -2.37932 | 14000 ft | 276 kts | 111° |
| 2026-05-04 06:41 | 40.03050 | -2.35535 | 14002 ft | 276 kts | 110° |
| 2026-05-04 06:41 | 40.02501 | -2.33131 | 14000 ft | 275 kts | 111° |
| 2026-05-04 06:41 | 40.01952 | -2.30745 | 13998 ft | 275 kts | 110° |
| 2026-05-04 06:42 | 40.01404 | -2.28355 | 13996 ft | 274 kts | 111° |
| 2026-05-04 06:42 | 40.00853 | -2.25968 | 13997 ft | 275 kts | 110° |
| 2026-05-04 06:42 | 40.00310 | -2.23606 | 13998 ft | 275 kts | 111° |
| 2026-05-04 06:44 | 39.94919 | -2.08048 | 13999 ft | 268 kts | 123° |
| 2026-05-04 06:44 | 39.94323 | -2.06637 | 14006 ft | 269 kts | 123° |
| 2026-05-04 06:44 | 39.93416 | -2.04505 | 14005 ft | 269 kts | 123° |
| 2026-05-04 06:45 | 39.92218 | -2.01673 | 13999 ft | 269 kts | 123° |
| 2026-05-04 06:45 | 39.91314 | -1.99545 | 14002 ft | 269 kts | 123° |
| 2026-05-04 06:45 | 39.90406 | -1.97408 | 13999 ft | 269 kts | 123° |
| 2026-05-04 06:45 | 39.89794 | -1.95965 | 13996 ft | 269 kts | 123° |
| 2026-05-04 06:46 | 39.88897 | -1.93854 | 13998 ft | 270 kts | 123° |
| 2026-05-04 06:46 | 39.87989 | -1.91715 | 13998 ft | 270 kts | 123° |
| 2026-05-04 06:46 | 39.87078 | -1.89579 | 14004 ft | 269 kts | 123° |
| 2026-05-04 06:46 | 39.86170 | -1.87447 | 14002 ft | 270 kts | 123° |
| 2026-05-04 06:48 | 39.79759 | -1.72433 | 14000 ft | 272 kts | 123° |
| 2026-05-04 06:48 | 39.78838 | -1.70283 | 14002 ft | 272 kts | 124° |
| 2026-05-04 06:49 | 39.77916 | -1.68131 | 14004 ft | 272 kts | 124° |
| 2026-05-04 06:50 | 39.71443 | -1.53069 | 14002 ft | 274 kts | 124° |
| 2026-05-04 06:51 | 39.70512 | -1.50910 | 13999 ft | 274 kts | 124° |
| 2026-05-04 06:51 | 39.69580 | -1.48748 | 13999 ft | 275 kts | 124° |
| 2026-05-04 06:51 | 39.68646 | -1.46585 | 13996 ft | 275 kts | 124° |
| 2026-05-04 06:51 | 39.67712 | -1.44423 | 13994 ft | 274 kts | 124° |
| 2026-05-04 06:52 | 39.66780 | -1.42265 | 13993 ft | 274 kts | 124° |
| 2026-05-04 06:52 | 39.65843 | -1.40104 | 13991 ft | 275 kts | 124° |
| 2026-05-04 06:52 | 39.64906 | -1.37935 | 13992 ft | 275 kts | 124° |
| 2026-05-04 06:52 | 39.63968 | -1.35771 | 13990 ft | 275 kts | 124° |
| 2026-05-04 06:53 | 39.63030 | -1.33607 | 13990 ft | 275 kts | 124° |
| 2026-05-04 06:53 | 39.62092 | -1.31444 | 13991 ft | 275 kts | 124° |
| 2026-05-04 06:53 | 39.61154 | -1.29287 | 13993 ft | 274 kts | 124° |
| 2026-05-04 06:53 | 39.60231 | -1.27160 | 13991 ft | 274 kts | 125° |
| 2026-05-04 06:54 | 39.59292 | -1.25002 | 13989 ft | 274 kts | 125° |
| 2026-05-04 06:54 | 39.58358 | -1.22851 | 13988 ft | 274 kts | 125° |
| 2026-05-04 06:54 | 39.57421 | -1.20703 | 13989 ft | 274 kts | 125° |
| 2026-05-04 06:54 | 39.56485 | -1.18551 | 13988 ft | 274 kts | 125° |
| 2026-05-04 06:55 | 39.55545 | -1.16399 | 13986 ft | 274 kts | 125° |
| 2026-05-04 06:55 | 39.54606 | -1.14245 | 13990 ft | 275 kts | 125° |
| 2026-05-04 06:55 | 39.53667 | -1.12091 | 13991 ft | 275 kts | 125° |
| 2026-05-04 06:55 | 39.52725 | -1.09941 | 13992 ft | 274 kts | 125° |
| 2026-05-04 06:56 | 39.51784 | -1.07793 | 13990 ft | 274 kts | 125° |
| 2026-05-04 06:57 | 39.45198 | -0.92780 | 13991 ft | 274 kts | 126° |
| 2026-05-04 06:58 | 39.44255 | -0.90634 | 13995 ft | 274 kts | 126° |
| 2026-05-04 06:58 | 39.43319 | -0.88496 | 13996 ft | 274 kts | 126° |
| 2026-05-04 06:58 | 39.42384 | -0.86349 | 13999 ft | 273 kts | 126° |
| 2026-05-04 06:58 | 39.41444 | -0.84213 | 14001 ft | 273 kts | 126° |
| 2026-05-04 06:59 | 39.40508 | -0.82075 | 14000 ft | 273 kts | 126° |
| 2026-05-04 06:59 | 39.39562 | -0.79940 | 13996 ft | 273 kts | 127° |
| 2026-05-04 06:59 | 39.38618 | -0.77807 | 14000 ft | 273 kts | 126° |
| 2026-05-04 06:59 | 39.37680 | -0.75680 | 13997 ft | 272 kts | 126° |
| 2026-05-04 07:01 | 39.31103 | -0.60848 | 14001 ft | 273 kts | 127° |
| 2026-05-04 07:01 | 39.30157 | -0.58719 | 13998 ft | 274 kts | 127° |
| 2026-05-04 07:02 | 39.29207 | -0.56583 | 14003 ft | 275 kts | 127° |
| 2026-05-04 07:02 | 39.28412 | -0.54319 | 13990 ft | 283 kts | 111° |
| 2026-05-04 07:02 | 39.28248 | -0.51754 | 14003 ft | 291 kts | 90° |
| 2026-05-04 07:02 | 39.28479 | -0.49149 | 14012 ft | 293 kts | 85° |
| 2026-05-04 07:03 | 39.28726 | -0.46545 | 14009 ft | 291 kts | 88° |
| 2026-05-04 07:03 | 39.28846 | -0.43937 | 14011 ft | 291 kts | 91° |
| 2026-05-04 07:03 | 39.28950 | -0.41323 | 14015 ft | 292 kts | 90° |
| 2026-05-04 07:03 | 39.29097 | -0.38703 | 14010 ft | 293 kts | 89° |
| 2026-05-04 07:04 | 39.29247 | -0.36078 | 14006 ft | 293 kts | 90° |
| 2026-05-04 07:04 | 39.29383 | -0.33453 | 14004 ft | 293 kts | 90° |
| 2026-05-04 07:04 | 39.29520 | -0.30822 | 14007 ft | 294 kts | 90° |
| 2026-05-04 07:04 | 39.29657 | -0.28191 | 14001 ft | 294 kts | 90° |
| 2026-05-04 07:05 | 39.29796 | -0.25559 | 14007 ft | 294 kts | 89° |
| 2026-05-04 07:05 | 39.29933 | -0.22926 | 14006 ft | 294 kts | 90° |
| 2026-05-04 07:05 | 39.30068 | -0.20296 | 14003 ft | 293 kts | 89° |
| 2026-05-04 07:05 | 39.30204 | -0.17671 | 13999 ft | 293 kts | 89° |
| 2026-05-04 07:06 | 39.30473 | -0.12409 | 14004 ft | 294 kts | 89° |
| 2026-05-04 07:06 | 39.30606 | -0.09777 | 14000 ft | 294 kts | 89° |
| 2026-05-04 07:06 | 39.30739 | -0.07147 | 13992 ft | 294 kts | 89° |
| 2026-05-04 07:07 | 39.30872 | -0.04516 | 13995 ft | 294 kts | 89° |
| 2026-05-04 07:08 | 39.31784 | 0.13942 | 13996 ft | 295 kts | 89° |
| 2026-05-04 07:09 | 39.31913 | 0.16590 | 13999 ft | 296 kts | 89° |
| 2026-05-04 07:09 | 39.32040 | 0.19241 | 13996 ft | 296 kts | 89° |
| 2026-05-04 07:09 | 39.32168 | 0.21892 | 13997 ft | 296 kts | 89° |
| 2026-05-04 07:09 | 39.32295 | 0.24546 | 13996 ft | 296 kts | 89° |
| 2026-05-04 07:10 | 39.32422 | 0.27197 | 13995 ft | 296 kts | 89° |
| 2026-05-04 07:10 | 39.32547 | 0.29852 | 13995 ft | 296 kts | 89° |
| 2026-05-04 07:12 | 39.33409 | 0.48412 | 13999 ft | 297 kts | 89° |
| 2026-05-04 07:12 | 39.33531 | 0.51076 | 13997 ft | 297 kts | 89° |
| 2026-05-04 07:12 | 39.33650 | 0.53733 | 13998 ft | 297 kts | 89° |
| 2026-05-04 07:12 | 39.33771 | 0.56392 | 13996 ft | 297 kts | 89° |
| 2026-05-04 07:13 | 39.33890 | 0.59054 | 13998 ft | 297 kts | 89° |
| 2026-05-04 07:13 | 39.34009 | 0.61719 | 13999 ft | 297 kts | 89° |
| 2026-05-04 07:13 | 39.34128 | 0.64385 | 14003 ft | 297 kts | 89° |
| 2026-05-04 07:14 | 39.34596 | 0.75078 | 14005 ft | 298 kts | 89° |
| 2026-05-04 07:14 | 39.34711 | 0.77755 | 14006 ft | 298 kts | 89° |
| 2026-05-04 07:15 | 39.34826 | 0.80426 | 13993 ft | 298 kts | 89° |
| 2026-05-04 07:15 | 39.34940 | 0.83102 | 14004 ft | 298 kts | 89° |
| 2026-05-04 07:15 | 39.35054 | 0.85775 | 13996 ft | 298 kts | 89° |
| 2026-05-04 07:15 | 39.35167 | 0.88448 | 14000 ft | 298 kts | 89° |
| 2026-05-04 07:16 | 39.35280 | 0.91128 | 13996 ft | 298 kts | 89° |
| 2026-05-04 07:16 | 39.35391 | 0.93805 | 13993 ft | 298 kts | 89° |
| 2026-05-04 07:16 | 39.35503 | 0.96480 | 13996 ft | 298 kts | 89° |
| 2026-05-04 07:16 | 39.35612 | 0.99119 | 13995 ft | 298 kts | 89° |
| 2026-05-04 07:17 | 39.35722 | 1.01795 | 13998 ft | 298 kts | 89° |
| 2026-05-04 07:17 | 39.35832 | 1.04474 | 14001 ft | 298 kts | 89° |
| 2026-05-04 07:17 | 39.35940 | 1.07149 | 13991 ft | 298 kts | 89° |
| 2026-05-04 07:17 | 39.36049 | 1.09825 | 13992 ft | 298 kts | 89° |
| 2026-05-04 07:18 | 39.36156 | 1.12499 | 13988 ft | 298 kts | 89° |
| 2026-05-04 07:18 | 39.36264 | 1.15175 | 13989 ft | 298 kts | 89° |
| 2026-05-04 07:18 | 39.36370 | 1.17851 | 13987 ft | 298 kts | 89° |
| 2026-05-04 07:18 | 39.36475 | 1.20525 | 13989 ft | 298 kts | 89° |
| 2026-05-04 07:19 | 39.36581 | 1.23206 | 13986 ft | 298 kts | 89° |
| 2026-05-04 07:19 | 39.36685 | 1.25883 | 13985 ft | 298 kts | 89° |
| 2026-05-04 07:19 | 39.36790 | 1.28565 | 13981 ft | 299 kts | 89° |
| 2026-05-04 07:19 | 39.36892 | 1.31244 | 13983 ft | 299 kts | 89° |
| 2026-05-04 07:20 | 39.36996 | 1.33925 | 13984 ft | 299 kts | 89° |
| 2026-05-04 07:20 | 39.37098 | 1.36607 | 13988 ft | 299 kts | 89° |
| 2026-05-04 07:20 | 39.37199 | 1.39288 | 13987 ft | 299 kts | 89° |
| 2026-05-04 07:20 | 39.37365 | 1.41930 | 13984 ft | 289 kts | 82° |
| 2026-05-04 07:22 | 39.39553 | 1.58361 | 13011 ft | 249 kts | 81° |
| 2026-05-04 07:22 | 39.39841 | 1.60559 | 12873 ft | 246 kts | 82° |
| 2026-05-04 07:23 | 39.40125 | 1.62730 | 12729 ft | 243 kts | 81° |
| 2026-05-04 07:23 | 39.40403 | 1.64852 | 12604 ft | 241 kts | 81° |
| 2026-05-04 07:23 | 39.40680 | 1.66984 | 12468 ft | 239 kts | 81° |
| 2026-05-04 07:23 | 39.40957 | 1.69095 | 12339 ft | 237 kts | 82° |
| 2026-05-04 07:24 | 39.41228 | 1.71193 | 12209 ft | 236 kts | 82° |
| 2026-05-04 07:24 | 39.41502 | 1.73295 | 12086 ft | 239 kts | 82° |
| 2026-05-04 07:24 | 39.41774 | 1.75436 | 11979 ft | 244 kts | 82° |
| 2026-05-04 07:24 | 39.42055 | 1.77638 | 11859 ft | 253 kts | 82° |
| 2026-05-04 07:25 | 39.42353 | 1.79916 | 11702 ft | 261 kts | 82° |
| 2026-05-04 07:26 | 39.44475 | 1.96465 | 10573 ft | 247 kts | 83° |
| 2026-05-04 07:27 | 39.44745 | 1.98622 | 10431 ft | 239 kts | 82° |
| 2026-05-04 07:27 | 39.45016 | 2.00707 | 10287 ft | 231 kts | 82° |
| 2026-05-04 07:27 | 39.45285 | 2.02719 | 10165 ft | 230 kts | 79° |
| 2026-05-04 07:27 | 39.45788 | 2.04701 | 10056 ft | 233 kts | 70° |
| 2026-05-04 07:28 | 39.46341 | 2.06684 | 9942 ft | 234 kts | 72° |
| 2026-05-04 07:28 | 39.46863 | 2.08691 | 9847 ft | 235 kts | 72° |
| 2026-05-04 07:28 | 39.47385 | 2.10690 | 9770 ft | 234 kts | 72° |
| 2026-05-04 07:28 | 39.47908 | 2.12677 | 9693 ft | 233 kts | 72° |
| 2026-05-04 07:29 | 39.48430 | 2.14664 | 9598 ft | 233 kts | 72° |
| 2026-05-04 07:29 | 39.48952 | 2.16645 | 9535 ft | 232 kts | 72° |
| 2026-05-04 07:29 | 39.49471 | 2.18626 | 9457 ft | 232 kts | 72° |
| 2026-05-04 07:29 | 39.49990 | 2.20601 | 9381 ft | 232 kts | 72° |
| 2026-05-04 07:30 | 39.50509 | 2.22577 | 9303 ft | 232 kts | 72° |
| 2026-05-04 07:30 | 39.51026 | 2.24552 | 9219 ft | 231 kts | 72° |
| 2026-05-04 07:30 | 39.51541 | 2.26524 | 9145 ft | 231 kts | 72° |
| 2026-05-04 07:30 | 39.52061 | 2.28501 | 9060 ft | 231 kts | 72° |
| 2026-05-04 07:31 | 39.52576 | 2.30477 | 8996 ft | 232 kts | 72° |
| 2026-05-04 07:31 | 39.53093 | 2.32456 | 8915 ft | 232 kts | 72° |
| 2026-05-04 07:33 | 39.58054 | 2.45411 | 8378 ft | 233 kts | 56° |
| 2026-05-04 07:33 | 39.58968 | 2.47141 | 8361 ft | 233 kts | 55° |
| 2026-05-04 07:33 | 39.59891 | 2.48873 | 8339 ft | 234 kts | 55° |
| 2026-05-04 07:33 | 39.60815 | 2.50621 | 8315 ft | 235 kts | 56° |
| 2026-05-04 07:34 | 39.61742 | 2.52375 | 8293 ft | 236 kts | 55° |
| 2026-05-04 07:34 | 39.62674 | 2.54128 | 8270 ft | 236 kts | 55° |
| 2026-05-04 07:34 | 39.63290 | 2.55294 | 8249 ft | 237 kts | 55° |
| 2026-05-04 07:34 | 39.64221 | 2.57055 | 8226 ft | 237 kts | 55° |
| 2026-05-04 07:35 | 39.65157 | 2.58824 | 8199 ft | 237 kts | 55° |
| 2026-05-04 07:35 | 39.66092 | 2.60592 | 8174 ft | 237 kts | 55° |
| 2026-05-04 07:35 | 39.67025 | 2.62357 | 8154 ft | 238 kts | 55° |
| 2026-05-04 07:35 | 39.67959 | 2.64131 | 8116 ft | 239 kts | 56° |
| 2026-05-04 07:36 | 39.68897 | 2.65908 | 8040 ft | 238 kts | 56° |
| 2026-05-04 07:36 | 39.69830 | 2.67683 | 7975 ft | 237 kts | 56° |
| 2026-05-04 07:38 | 39.76198 | 2.79773 | 7843 ft | 223 kts | 56° |
| 2026-05-04 07:38 | 39.77064 | 2.81424 | 7888 ft | 220 kts | 55° |
| 2026-05-04 07:38 | 39.77923 | 2.83062 | 7936 ft | 219 kts | 56° |
| 2026-05-04 07:38 | 39.78779 | 2.84689 | 7973 ft | 217 kts | 56° |
| 2026-05-04 07:39 | 39.79622 | 2.86305 | 8025 ft | 215 kts | 55° |
| 2026-05-04 07:39 | 39.80477 | 2.87934 | 7942 ft | 221 kts | 55° |
| 2026-05-04 07:39 | 39.81335 | 2.89572 | 7884 ft | 223 kts | 56° |
| 2026-05-04 07:39 | 39.82181 | 2.91275 | 7795 ft | 225 kts | 63° |
| 2026-05-04 07:40 | 39.82494 | 2.93242 | 7694 ft | 222 kts | 88° |
| 2026-05-04 07:40 | 39.82997 | 2.95125 | 7691 ft | 222 kts | 58° |
| 2026-05-04 07:40 | 39.83880 | 2.96747 | 7742 ft | 218 kts | 50° |
| 2026-05-04 07:40 | 39.84974 | 2.98096 | 7782 ft | 216 kts | 39° |
| 2026-05-04 07:41 | 39.86121 | 2.99376 | 7786 ft | 218 kts | 40° |
| 2026-05-04 07:41 | 39.87224 | 3.00736 | 7783 ft | 220 kts | 46° |
| 2026-05-04 07:41 | 39.88251 | 3.02225 | 7788 ft | 221 kts | 49° |
| 2026-05-04 07:41 | 39.89231 | 3.03773 | 7789 ft | 222 kts | 50° |
| 2026-05-04 07:42 | 39.90214 | 3.05337 | 7792 ft | 223 kts | 50° |
| 2026-05-04 07:42 | 39.91118 | 3.06993 | 7782 ft | 225 kts | 58° |
| 2026-05-04 07:42 | 39.91942 | 3.08728 | 7789 ft | 226 kts | 58° |
| 2026-05-04 07:42 | 39.92772 | 3.10472 | 7791 ft | 227 kts | 58° |
| 2026-05-04 07:43 | 39.93573 | 3.12239 | 7764 ft | 226 kts | 66° |
| 2026-05-04 07:43 | 39.93748 | 3.14216 | 7592 ft | 228 kts | 103° |
| 2026-05-04 07:43 | 39.92989 | 3.15986 | 7225 ft | 226 kts | 140° |
| 2026-05-04 07:43 | 39.91585 | 3.16808 | 6877 ft | 223 kts | 175° |
| 2026-05-04 07:44 | 39.90059 | 3.16593 | 6513 ft | 221 kts | 194° |
| 2026-05-04 07:44 | 39.88600 | 3.15977 | 6124 ft | 217 kts | 201° |
| 2026-05-04 07:44 | 39.87215 | 3.15289 | 5715 ft | 210 kts | 201° |
| 2026-05-04 07:44 | 39.85870 | 3.14609 | 5293 ft | 206 kts | 202° |
| 2026-05-04 07:45 | 39.84545 | 3.13935 | 4868 ft | 203 kts | 202° |
| 2026-05-04 07:45 | 39.83201 | 3.13413 | 4437 ft | 201 kts | 193° |
| 2026-05-04 07:45 | 39.81855 | 3.13070 | 4215 ft | 191 kts | 192° |
| 2026-05-04 07:45 | 39.80530 | 3.12748 | 4082 ft | 195 kts | 192° |
| 2026-05-04 07:46 | 39.79198 | 3.12425 | 4059 ft | 195 kts | 191° |
| 2026-05-04 07:46 | 39.77858 | 3.12096 | 4062 ft | 197 kts | 192° |
| 2026-05-04 07:46 | 39.76498 | 3.11762 | 4071 ft | 200 kts | 191° |
| 2026-05-04 07:46 | 39.75120 | 3.11422 | 4072 ft | 203 kts | 192° |
| 2026-05-04 07:47 | 39.73750 | 3.11052 | 4068 ft | 204 kts | 195° |
| 2026-05-04 07:47 | 39.72402 | 3.10447 | 4067 ft | 205 kts | 201° |
| 2026-05-04 07:47 | 39.71188 | 3.09486 | 4005 ft | 207 kts | 222° |
| 2026-05-04 07:49 | 39.65941 | 2.98360 | 3547 ft | 199 kts | 242° |
| 2026-05-04 07:49 | 39.65248 | 2.96828 | 3468 ft | 196 kts | 237° |
| 2026-05-04 07:49 | 39.64553 | 2.95312 | 3370 ft | 196 kts | 238° |
| 2026-05-04 07:50 | 39.63833 | 2.93771 | 3112 ft | 203 kts | 237° |
| 2026-05-04 07:50 | 39.63077 | 2.92184 | 2840 ft | 209 kts | 237° |
| 2026-05-04 07:50 | 39.62320 | 2.90552 | 2561 ft | 213 kts | 237° |
| 2026-05-04 07:50 | 39.61533 | 2.88893 | 2274 ft | 217 kts | 237° |
| 2026-05-04 07:51 | 39.60768 | 2.87259 | 1991 ft | 206 kts | 238° |
| 2026-05-04 07:51 | 39.60063 | 2.85761 | 1723 ft | 183 kts | 237° |
| 2026-05-04 07:51 | 39.59425 | 2.84416 | 1477 ft | 168 kts | 238° |
| 2026-05-04 07:51 | 39.58841 | 2.83160 | 1285 ft | 155 kts | 236° |
| 2026-05-04 07:52 | 39.58302 | 2.82039 | 1078 ft | 144 kts | 237° |
| 2026-05-04 07:52 | 39.57788 | 2.80935 | 884 ft | 142 kts | 236° |
| 2026-05-04 07:52 | 39.57262 | 2.79836 | 689 ft | 144 kts | 238° |
| 2026-05-04 07:52 | 39.56769 | 2.78765 | 509 ft | 136 kts | 237° |
| 2026-05-04 07:53 | 39.56285 | 2.77758 | 332 ft | 128 kts | 237° |